Ellerslie, Maryland
Current Conditions -  °F | °C
As of 10:54 AM on Friday 28 Nov 2014 (Local Time) from KCBE Reporting Station
Scattered Clouds Scattered Clouds  
Wind Chill: 24°   Ceiling: Unl
Heat Index: 32°   Visibility: 10mi
Dew Point: 19°   Wind: 9mph
Humidity: 60%   Direction: 360°N
Pressure: 30.35"   Gusts: 18mph
Location:  39.72°N, 78.77°W
Report Text: KCBE 281554Z AUTO 36008G16KT 321V021 10SM SCT042 SCT048 00/M07 A3035 RMK AO1
Loading
Personal Weather Stations






























Interactive Weather Map New forecast layout! Learn more

10-Day Weather Forecast

Advertisements
Track Severe Weather on mobile